createdAt,value
2018-06-04T00:01:12.363Z,52.93
2018-06-04T00:03:41.926Z,52.94
2018-06-04T00:06:10.664Z,52.35
2018-06-04T00:08:39.431Z,52.93
2018-06-04T00:11:08.283Z,53.20
2018-06-04T00:13:37.044Z,53.31
2018-06-04T00:16:05.853Z,53.23
2018-06-04T00:18:34.592Z,53.61
2018-06-04T00:21:03.339Z,53.45
2018-06-04T00:23:32.072Z,53.40
2018-06-04T00:26:00.835Z,53.91
2018-06-04T00:28:29.644Z,53.73
2018-06-04T00:30:58.407Z,53.95
2018-06-04T00:33:27.567Z,53.26
2018-06-04T00:35:56.311Z,54.08
2018-06-04T00:38:25.124Z,54.09
2018-06-04T00:40:54.058Z,54.15
2018-06-04T00:43:22.906Z,54.06
2018-06-04T00:45:51.707Z,54.29
2018-06-04T00:48:20.459Z,54.00
2018-06-04T00:50:49.247Z,53.53
2018-06-04T00:53:18.023Z,53.71
2018-06-04T00:55:57.983Z,54.51
2018-06-04T00:58:26.722Z,55.50
2018-06-04T01:00:55.553Z,55.71
2018-06-04T01:03:24.323Z,55.20
2018-06-04T01:05:53.104Z,55.12
2018-06-04T01:08:21.855Z,55.10
2018-06-04T01:10:50.620Z,54.82
2018-06-04T01:13:19.363Z,54.83
2018-06-04T01:15:48.217Z,55.49
2018-06-04T01:18:16.963Z,55.45
2018-06-04T01:20:45.773Z,54.79
2018-06-04T01:23:14.520Z,54.77
2018-06-04T01:25:43.297Z,55.15
2018-06-04T01:28:12.048Z,55.21
2018-06-04T01:30:40.824Z,55.12
2018-06-04T01:33:09.565Z,55.52
2018-06-04T01:35:38.305Z,54.90
2018-06-04T01:38:07.079Z,55.15
2018-06-04T01:40:35.878Z,54.90
2018-06-04T01:43:04.623Z,54.96
2018-06-04T01:45:33.447Z,54.99
2018-06-04T01:48:02.281Z,54.85
2018-06-04T01:50:31.084Z,55.48
2018-06-04T01:52:59.831Z,55.02
2018-06-04T01:55:28.575Z,55.84
2018-06-04T01:57:57.352Z,55.18
2018-06-04T02:00:26.145Z,56.28
2018-06-04T02:02:54.871Z,56.30
2018-06-04T02:05:23.610Z,56.10
2018-06-04T02:07:52.374Z,55.80
2018-06-04T02:10:21.119Z,56.89
2018-06-04T02:12:49.930Z,57.16
2018-06-04T02:15:18.697Z,56.68
2018-06-04T02:17:47.453Z,57.32
2018-06-04T02:20:16.215Z,56.93
2018-06-04T02:22:44.972Z,57.41
2018-06-04T02:25:13.745Z,57.96
2018-06-04T02:27:42.531Z,57.94
2018-06-04T02:30:11.396Z,57.40
2018-06-04T02:32:40.163Z,57.94
2018-06-04T02:35:08.969Z,57.92
2018-06-04T02:37:37.768Z,58.05
2018-06-04T02:40:06.824Z,58.25
2018-06-04T02:42:35.556Z,57.90
2018-06-04T02:45:04.447Z,57.92
2018-06-04T02:47:34.180Z,58.67
2018-06-04T02:50:03.058Z,58.93
2018-06-04T02:52:31.879Z,59.16
2018-06-04T02:55:00.651Z,58.75
2018-06-04T02:57:35.887Z,59.28
2018-06-04T03:00:06.439Z,59.16
2018-06-04T03:02:35.147Z,58.84
2018-06-04T03:05:04.003Z,59.90
2018-06-04T03:07:32.758Z,60.76
2018-06-04T03:10:01.605Z,61.44
2018-06-04T03:12:30.981Z,62.59
2018-06-04T03:14:59.747Z,62.32
2018-06-04T03:17:28.519Z,62.76
2018-06-04T03:19:57.638Z,62.78
2018-06-04T03:22:26.622Z,63.65
2018-06-04T03:24:55.383Z,63.80
2018-06-04T03:27:24.214Z,63.54
2018-06-04T03:29:53.035Z,62.37
2018-06-04T03:32:21.783Z,62.59
2018-06-04T03:34:50.926Z,62.01
2018-06-04T03:37:19.857Z,62.29
2018-06-04T03:39:48.689Z,62.16
2018-06-04T03:42:17.531Z,61.96
2018-06-04T03:44:46.508Z,62.63
2018-06-04T03:47:15.404Z,63.51
2018-06-04T03:49:44.620Z,63.97
2018-06-04T03:52:13.392Z,63.75
2018-06-04T03:54:42.228Z,63.54
2018-06-04T03:57:11.403Z,63.33
2018-06-04T03:59:40.231Z,62.97
2018-06-04T04:02:09.013Z,63.00
2018-06-04T04:04:37.782Z,61.95
2018-06-04T04:07:06.564Z,60.82
2018-06-04T04:09:35.373Z,60.51
2018-06-04T04:12:04.213Z,60.21
2018-06-04T04:14:32.954Z,60.16
2018-06-04T04:17:01.743Z,59.88
2018-06-04T04:19:30.827Z,59.31
2018-06-04T04:21:59.650Z,59.66
2018-06-04T04:24:28.416Z,59.54
2018-06-04T04:26:57.169Z,60.09
2018-06-04T04:29:26.261Z,60.00
2018-06-04T04:31:55.036Z,61.11
2018-06-04T04:34:23.862Z,61.16
2018-06-04T04:36:52.684Z,61.20
2018-06-04T04:39:21.511Z,59.15
2018-06-04T04:41:50.282Z,58.42
2018-06-04T04:44:19.119Z,58.85
2018-06-04T04:46:47.878Z,57.79
2018-06-04T04:49:16.670Z,57.39
2018-06-04T04:51:45.471Z,55.06
2018-06-04T04:54:14.382Z,52.82
2018-06-04T04:56:43.278Z,50.89
2018-06-04T04:59:12.126Z,48.76
2018-06-04T05:01:40.858Z,46.89
2018-06-04T05:04:09.618Z,45.21
2018-06-04T05:06:38.411Z,43.70
2018-06-04T05:09:08.921Z,43.02
2018-06-04T05:11:37.708Z,42.93
2018-06-04T05:14:06.497Z,41.87
2018-06-04T05:16:35.281Z,41.63
2018-06-04T05:19:04.044Z,41.88
2018-06-04T05:21:32.825Z,43.81
2018-06-04T05:24:01.660Z,42.81
2018-06-04T05:26:30.480Z,42.09
2018-06-04T05:28:59.416Z,43.23
2018-06-04T05:31:28.251Z,41.64
2018-06-04T05:33:56.975Z,42.05
2018-06-04T05:36:25.727Z,43.61
2018-06-04T05:38:54.579Z,45.31
2018-06-04T05:41:23.329Z,44.74
2018-06-04T05:43:52.111Z,45.34
2018-06-04T05:46:20.874Z,45.98
2018-06-04T05:48:49.685Z,45.04
2018-06-04T05:51:18.462Z,44.25
2018-06-04T05:53:47.210Z,44.88
2018-06-04T05:56:15.991Z,44.27
2018-06-04T05:58:44.946Z,44.23
2018-06-04T06:01:13.912Z,45.47
2018-06-04T06:03:42.677Z,46.39
2018-06-04T06:06:11.504Z,46.76
2018-06-04T06:08:40.278Z,47.45
2018-06-04T06:11:09.067Z,48.73
2018-06-04T06:13:37.896Z,48.24
2018-06-04T06:16:06.688Z,48.51
2018-06-04T06:18:35.553Z,49.48
2018-06-04T06:21:04.315Z,50.76
2018-06-04T06:23:33.103Z,51.37
2018-06-04T06:26:01.859Z,51.73
2018-06-04T06:28:30.655Z,51.35
2018-06-04T06:30:59.488Z,50.45
2018-06-04T06:33:28.266Z,51.15
2018-06-04T06:35:57.043Z,50.74
2018-06-04T06:38:25.854Z,51.23
2018-06-04T06:40:54.659Z,50.49
2018-06-04T06:43:23.510Z,51.39
2018-06-04T06:45:52.317Z,51.21
2018-06-04T06:48:21.139Z,51.37
2018-06-04T06:50:49.900Z,50.31
2018-06-04T06:53:18.787Z,50.02
2018-06-04T06:55:47.599Z,51.09
2018-06-04T06:58:16.432Z,50.73
2018-06-04T07:00:45.213Z,50.93
2018-06-04T07:03:14.644Z,50.84
2018-06-04T07:05:43.440Z,51.31
2018-06-04T07:08:13.163Z,49.92
2018-06-04T07:10:41.930Z,50.39
2018-06-04T07:13:10.700Z,49.50
2018-06-04T07:15:39.460Z,49.73
2018-06-04T07:18:08.227Z,49.92
2018-06-04T07:20:37.520Z,50.08
2018-06-04T07:23:06.369Z,49.63
2018-06-04T07:25:35.258Z,50.68
2018-06-04T07:28:04.028Z,49.45
2018-06-04T07:30:32.976Z,49.18
2018-06-04T07:33:01.799Z,49.00
2018-06-04T07:35:30.586Z,49.80
2018-06-04T07:37:59.482Z,49.11
2018-06-04T07:40:28.246Z,49.77
2018-06-04T07:42:57.091Z,49.38
2018-06-04T07:45:25.852Z,50.12
2018-06-04T07:47:54.634Z,49.29
2018-06-04T07:50:23.459Z,48.97
2018-06-04T07:52:52.252Z,47.94
2018-06-04T07:55:21.164Z,47.76
2018-06-04T07:57:49.930Z,47.37
2018-06-04T08:00:18.740Z,47.64
2018-06-04T08:02:47.482Z,47.33
2018-06-04T08:05:16.409Z,47.57
2018-06-04T08:07:45.197Z,47.01
2018-06-04T08:10:13.945Z,48.28
2018-06-04T08:12:42.704Z,48.48
2018-06-04T08:15:11.433Z,47.98
2018-06-04T08:17:40.229Z,46.14
2018-06-04T08:20:09.040Z,45.47
2018-06-04T08:22:37.858Z,46.88
2018-06-04T08:25:06.614Z,46.63
2018-06-04T08:27:35.367Z,45.80
2018-06-04T08:30:05.178Z,45.42
2018-06-04T08:32:33.940Z,45.08
2018-06-04T08:35:02.743Z,46.42
2018-06-04T08:37:31.560Z,45.23
2018-06-04T08:40:00.328Z,46.13
2018-06-04T08:42:29.087Z,45.07
2018-06-04T08:44:57.874Z,45.43
2018-06-04T08:47:26.735Z,45.73
2018-06-04T08:49:55.530Z,46.08
2018-06-04T08:52:24.282Z,44.74
2018-06-04T08:54:53.124Z,44.19
2018-06-04T08:57:21.907Z,43.92
2018-06-04T08:59:50.682Z,43.64
2018-06-04T09:02:19.407Z,42.70
2018-06-04T09:04:48.172Z,43.42
2018-06-04T09:07:17.064Z,42.33
2018-06-04T09:09:45.814Z,42.16
2018-06-04T09:12:14.781Z,42.45
2018-06-04T09:14:43.544Z,42.93
2018-06-04T09:17:12.355Z,41.93
2018-06-04T09:19:41.141Z,41.95
2018-06-04T09:22:09.958Z,40.01
2018-06-04T09:24:38.853Z,40.66
2018-06-04T09:27:07.879Z,40.27
2018-06-04T09:29:36.667Z,40.95
2018-06-04T09:32:05.470Z,39.08
2018-06-04T09:34:34.375Z,40.00
2018-06-04T09:37:03.175Z,40.30
2018-06-04T09:39:31.895Z,39.08
2018-06-04T09:42:00.656Z,37.79
2018-06-04T09:44:29.597Z,38.43
2018-06-04T09:46:58.407Z,38.79
2018-06-04T09:49:27.179Z,40.31
2018-06-04T09:51:55.955Z,39.46
2018-06-04T09:54:24.730Z,39.15
2018-06-04T09:56:53.492Z,40.19
2018-06-04T09:59:22.294Z,38.78
2018-06-04T10:01:51.077Z,37.71
2018-06-04T10:04:19.915Z,36.72
2018-06-04T10:06:48.717Z,37.71
2018-06-04T10:09:17.514Z,37.64
2018-06-04T10:11:46.295Z,37.94
2018-06-04T10:14:15.084Z,37.81
2018-06-04T10:16:43.855Z,37.19
2018-06-04T10:19:12.640Z,36.27
2018-06-04T10:21:41.531Z,36.89
2018-06-04T10:24:10.438Z,35.25
2018-06-04T10:26:39.260Z,36.91
2018-06-04T10:29:09.047Z,38.38
2018-06-04T10:31:37.857Z,39.78
2018-06-04T10:34:06.662Z,39.04
2018-06-04T10:36:36.530Z,37.47
2018-06-04T10:39:07.534Z,41.79
2018-06-04T10:41:37.962Z,43.78
2018-06-04T10:44:06.726Z,43.82
2018-06-04T10:46:35.504Z,43.00
2018-06-04T10:49:04.282Z,42.79
2018-06-04T10:51:33.003Z,44.15
2018-06-04T10:54:01.806Z,44.94
2018-06-04T10:56:30.528Z,44.73
2018-06-04T10:59:00.323Z,43.89
2018-06-04T11:01:29.031Z,44.08
2018-06-04T11:03:57.908Z,42.77
2018-06-04T11:06:26.650Z,42.74
2018-06-04T11:08:55.703Z,42.64
2018-06-04T11:11:24.467Z,41.87
2018-06-04T11:13:53.231Z,41.73
2018-06-04T11:16:22.041Z,42.49
2018-06-04T11:18:50.919Z,42.21
2018-06-04T11:21:20.025Z,41.83
2018-06-04T11:23:48.781Z,41.79
2018-06-04T11:26:17.782Z,41.88
2018-06-04T11:28:46.573Z,41.33
2018-06-04T11:31:15.358Z,41.74
2018-06-04T11:33:44.044Z,40.98
2018-06-04T11:36:12.785Z,40.60
2018-06-04T11:38:41.684Z,39.75
2018-06-04T11:41:10.456Z,38.17
2018-06-04T11:43:39.194Z,38.93
2018-06-04T11:46:08.157Z,39.35
2018-06-04T11:48:36.896Z,38.96
2018-06-04T11:51:05.657Z,37.97
2018-06-04T11:53:41.045Z,38.25
2018-06-04T11:56:09.790Z,38.32
2018-06-04T11:58:38.548Z,38.33
2018-06-04T12:01:07.465Z,39.16
2018-06-04T12:03:36.248Z,37.50
2018-06-04T12:06:04.976Z,37.57
2018-06-04T12:08:33.835Z,37.58
